sensor_id;sensor_type;location;lat;lon;timestamp;P1;durP1;ratioP1;P2;durP2;ratioP2
24485;SDS011;13449;49.374;8.584;2023-04-29T00:01:38;2.88;;;2.17;;
24485;SDS011;13449;49.374;8.584;2023-04-29T00:04:05;2.38;;;2.22;;
24485;SDS011;13449;49.374;8.584;2023-04-29T00:06:32;3.38;;;1.95;;
24485;SDS011;13449;49.374;8.584;2023-04-29T00:09:00;4.57;;;2.97;;
24485;SDS011;13449;49.374;8.584;2023-04-29T00:11:27;2.30;;;2.10;;
24485;SDS011;13449;49.374;8.584;2023-04-29T00:13:54;2.60;;;2.40;;
24485;SDS011;13449;49.374;8.584;2023-04-29T00:16:20;3.03;;;2.78;;
24485;SDS011;13449;49.374;8.584;2023-04-29T00:18:47;2.55;;;2.35;;
24485;SDS011;13449;49.374;8.584;2023-04-29T00:21:13;4.10;;;3.10;;
24485;SDS011;13449;49.374;8.584;2023-04-29T00:23:39;4.07;;;3.58;;
24485;SDS011;13449;49.374;8.584;2023-04-29T00:26:06;6.55;;;4.55;;
24485;SDS011;13449;49.374;8.584;2023-04-29T00:28:32;9.82;;;6.55;;
24485;SDS011;13449;49.374;8.584;2023-04-29T00:30:59;11.65;;;7.40;;
24485;SDS011;13449;49.374;8.584;2023-04-29T00:33:25;7.97;;;6.50;;
24485;SDS011;13449;49.374;8.584;2023-04-29T00:35:52;7.30;;;6.10;;
24485;SDS011;13449;49.374;8.584;2023-04-29T00:38:19;6.00;;;4.70;;
24485;SDS011;13449;49.374;8.584;2023-04-29T00:40:46;6.72;;;4.95;;
24485;SDS011;13449;49.374;8.584;2023-04-29T00:43:13;6.43;;;4.80;;
24485;SDS011;13449;49.374;8.584;2023-04-29T00:45:39;7.30;;;5.82;;
24485;SDS011;13449;49.374;8.584;2023-04-29T00:48:06;7.30;;;5.22;;
24485;SDS011;13449;49.374;8.584;2023-04-29T00:50:33;6.35;;;5.28;;
24485;SDS011;13449;49.374;8.584;2023-04-29T00:52:59;5.75;;;5.10;;
24485;SDS011;13449;49.374;8.584;2023-04-29T00:55:27;7.18;;;5.75;;
24485;SDS011;13449;49.374;8.584;2023-04-29T00:57:53;7.75;;;5.65;;
24485;SDS011;13449;49.374;8.584;2023-04-29T01:00:20;6.57;;;4.85;;
24485;SDS011;13449;49.374;8.584;2023-04-29T01:02:46;7.60;;;5.20;;
24485;SDS011;13449;49.374;8.584;2023-04-29T01:05:15;11.85;;;5.28;;
24485;SDS011;13449;49.374;8.584;2023-04-29T01:07:46;5.07;;;4.30;;
24485;SDS011;13449;49.374;8.584;2023-04-29T01:10:25;5.93;;;4.97;;
24485;SDS011;13449;49.374;8.584;2023-04-29T01:16:02;4.82;;;4.30;;
24485;SDS011;13449;49.374;8.584;2023-04-29T01:18:38;7.93;;;6.00;;
24485;SDS011;13449;49.374;8.584;2023-04-29T01:21:09;7.28;;;4.10;;
24485;SDS011;13449;49.374;8.584;2023-04-29T01:23:35;6.55;;;5.13;;
24485;SDS011;13449;49.374;8.584;2023-04-29T01:26:02;8.95;;;4.45;;
24485;SDS011;13449;49.374;8.584;2023-04-29T01:28:38;4.50;;;2.85;;
24485;SDS011;13449;49.374;8.584;2023-04-29T01:31:18;4.60;;;3.40;;
24485;SDS011;13449;49.374;8.584;2023-04-29T01:33:58;3.45;;;3.13;;
24485;SDS011;13449;49.374;8.584;2023-04-29T01:39:19;2.78;;;2.47;;
24485;SDS011;13449;49.374;8.584;2023-04-29T01:41:55;3.40;;;2.70;;
24485;SDS011;13449;49.374;8.584;2023-04-29T01:44:28;5.85;;;3.00;;
24485;SDS011;13449;49.374;8.584;2023-04-29T01:46:56;4.55;;;3.47;;
24485;SDS011;13449;49.374;8.584;2023-04-29T01:49:27;3.17;;;2.88;;
24485;SDS011;13449;49.374;8.584;2023-04-29T01:51:54;3.25;;;2.50;;
24485;SDS011;13449;49.374;8.584;2023-04-29T01:54:21;4.28;;;3.08;;
24485;SDS011;13449;49.374;8.584;2023-04-29T01:56:47;7.65;;;3.08;;
24485;SDS011;13449;49.374;8.584;2023-04-29T01:59:14;4.30;;;3.20;;
24485;SDS011;13449;49.374;8.584;2023-04-29T02:01:46;3.25;;;2.95;;
24485;SDS011;13449;49.374;8.584;2023-04-29T02:04:12;6.88;;;4.45;;
24485;SDS011;13449;49.374;8.584;2023-04-29T02:06:39;6.47;;;4.25;;
24485;SDS011;13449;49.374;8.584;2023-04-29T02:09:05;3.83;;;3.25;;
24485;SDS011;13449;49.374;8.584;2023-04-29T02:11:32;3.40;;;3.08;;
24485;SDS011;13449;49.374;8.584;2023-04-29T02:14:00;5.55;;;4.13;;
24485;SDS011;13449;49.374;8.584;2023-04-29T02:16:27;4.45;;;3.53;;
24485;SDS011;13449;49.374;8.584;2023-04-29T02:18:53;5.07;;;4.13;;
24485;SDS011;13449;49.374;8.584;2023-04-29T02:21:20;9.30;;;3.70;;
24485;SDS011;13449;49.374;8.584;2023-04-29T02:23:46;12.98;;;4.38;;
24485;SDS011;13449;49.374;8.584;2023-04-29T02:26:13;2.45;;;1.98;;
24485;SDS011;13449;49.374;8.584;2023-04-29T02:28:40;5.50;;;4.25;;
24485;SDS011;13449;49.374;8.584;2023-04-29T02:31:09;11.13;;;4.50;;
24485;SDS011;13449;49.374;8.584;2023-04-29T02:33:38;16.85;;;4.68;;
24485;SDS011;13449;49.374;8.584;2023-04-29T02:36:05;4.57;;;3.35;;
24485;SDS011;13449;49.374;8.584;2023-04-29T02:38:31;8.88;;;5.90;;
24485;SDS011;13449;49.374;8.584;2023-04-29T02:40:58;11.48;;;5.32;;
24485;SDS011;13449;49.374;8.584;2023-04-29T02:43:24;8.70;;;5.93;;
24485;SDS011;13449;49.374;8.584;2023-04-29T02:45:51;22.98;;;7.85;;
24485;SDS011;13449;49.374;8.584;2023-04-29T02:48:17;8.85;;;6.57;;
24485;SDS011;13449;49.374;8.584;2023-04-29T02:50:44;11.57;;;6.28;;
24485;SDS011;13449;49.374;8.584;2023-04-29T02:53:13;11.48;;;6.70;;
24485;SDS011;13449;49.374;8.584;2023-04-29T02:55:41;14.00;;;6.22;;
24485;SDS011;13449;49.374;8.584;2023-04-29T02:58:09;8.55;;;5.90;;
24485;SDS011;13449;49.374;8.584;2023-04-29T03:00:35;13.73;;;5.82;;
24485;SDS011;13449;49.374;8.584;2023-04-29T03:03:02;11.32;;;5.93;;
24485;SDS011;13449;49.374;8.584;2023-04-29T03:05:31;7.13;;;4.75;;
24485;SDS011;13449;49.374;8.584;2023-04-29T03:07:58;9.88;;;5.60;;
24485;SDS011;13449;49.374;8.584;2023-04-29T03:10:24;33.08;;;16.20;;
24485;SDS011;13449;49.374;8.584;2023-04-29T03:12:51;13.85;;;8.38;;
24485;SDS011;13449;49.374;8.584;2023-04-29T03:15:20;14.88;;;7.57;;
24485;SDS011;13449;49.374;8.584;2023-04-29T03:17:47;7.80;;;5.40;;
24485;SDS011;13449;49.374;8.584;2023-04-29T03:20:14;15.05;;;5.80;;
24485;SDS011;13449;49.374;8.584;2023-04-29T03:22:41;4.57;;;3.63;;
24485;SDS011;13449;49.374;8.584;2023-04-29T03:25:07;4.55;;;4.05;;
24485;SDS011;13449;49.374;8.584;2023-04-29T03:27:35;11.75;;;3.15;;
24485;SDS011;13449;49.374;8.584;2023-04-29T03:30:02;3.58;;;3.28;;
24485;SDS011;13449;49.374;8.584;2023-04-29T03:32:31;5.80;;;3.95;;
24485;SDS011;13449;49.374;8.584;2023-04-29T03:35:00;3.05;;;2.42;;
24485;SDS011;13449;49.374;8.584;2023-04-29T03:37:30;4.85;;;2.65;;
24485;SDS011;13449;49.374;8.584;2023-04-29T03:39:56;8.48;;;4.35;;
24485;SDS011;13449;49.374;8.584;2023-04-29T03:42:23;3.38;;;2.90;;
24485;SDS011;13449;49.374;8.584;2023-04-29T03:44:54;3.45;;;2.53;;
24485;SDS011;13449;49.374;8.584;2023-04-29T03:47:22;4.15;;;2.92;;
24485;SDS011;13449;49.374;8.584;2023-04-29T03:49:49;5.20;;;4.20;;
24485;SDS011;13449;49.374;8.584;2023-04-29T03:52:16;4.00;;;2.55;;
24485;SDS011;13449;49.374;8.584;2023-04-29T03:54:42;5.63;;;2.97;;
24485;SDS011;13449;49.374;8.584;2023-04-29T03:57:11;3.13;;;2.83;;
24485;SDS011;13449;49.374;8.584;2023-04-29T03:59:38;8.00;;;3.75;;
24485;SDS011;13449;49.374;8.584;2023-04-29T04:02:07;12.95;;;4.95;;
24485;SDS011;13449;49.374;8.584;2023-04-29T04:04:34;4.50;;;3.08;;
24485;SDS011;13449;49.374;8.584;2023-04-29T04:07:03;2.63;;;2.35;;
24485;SDS011;13449;49.374;8.584;2023-04-29T04:09:30;1.60;;;1.50;;
24485;SDS011;13449;49.374;8.584;2023-04-29T04:11:56;3.13;;;2.80;;
24485;SDS011;13449;49.374;8.584;2023-04-29T04:14:22;4.40;;;2.30;;
24485;SDS011;13449;49.374;8.584;2023-04-29T04:16:49;2.17;;;1.98;;
24485;SDS011;13449;49.374;8.584;2023-04-29T04:19:15;1.85;;;1.70;;
24485;SDS011;13449;49.374;8.584;2023-04-29T04:21:42;2.63;;;2.30;;
24485;SDS011;13449;49.374;8.584;2023-04-29T04:24:08;2.88;;;2.13;;
24485;SDS011;13449;49.374;8.584;2023-04-29T04:26:35;3.88;;;2.00;;
24485;SDS011;13449;49.374;8.584;2023-04-29T04:29:02;1.77;;;1.67;;
24485;SDS011;13449;49.374;8.584;2023-04-29T04:31:28;2.10;;;1.90;;
24485;SDS011;13449;49.374;8.584;2023-04-29T04:33:55;2.28;;;2.00;;
24485;SDS011;13449;49.374;8.584;2023-04-29T04:36:22;2.03;;;1.85;;
24485;SDS011;13449;49.374;8.584;2023-04-29T04:38:51;5.65;;;2.92;;
24485;SDS011;13449;49.374;8.584;2023-04-29T04:41:18;3.58;;;2.85;;
24485;SDS011;13449;49.374;8.584;2023-04-29T04:43:44;1.80;;;1.70;;
24485;SDS011;13449;49.374;8.584;2023-04-29T04:46:11;1.50;;;1.40;;
24485;SDS011;13449;49.374;8.584;2023-04-29T04:48:41;10.93;;;3.58;;
24485;SDS011;13449;49.374;8.584;2023-04-29T04:51:11;5.63;;;2.30;;
24485;SDS011;13449;49.374;8.584;2023-04-29T04:53:40;3.97;;;2.95;;
24485;SDS011;13449;49.374;8.584;2023-04-29T04:56:06;4.25;;;2.25;;
24485;SDS011;13449;49.374;8.584;2023-04-29T04:58:33;2.85;;;2.15;;
24485;SDS011;13449;49.374;8.584;2023-04-29T05:00:59;2.70;;;2.50;;
24485;SDS011;13449;49.374;8.584;2023-04-29T05:03:26;1.95;;;1.75;;
24485;SDS011;13449;49.374;8.584;2023-04-29T05:05:57;3.00;;;2.70;;
24485;SDS011;13449;49.374;8.584;2023-04-29T05:08:26;3.63;;;2.30;;
24485;SDS011;13449;49.374;8.584;2023-04-29T05:10:52;2.85;;;2.42;;
24485;SDS011;13449;49.374;8.584;2023-04-29T05:13:19;4.05;;;3.00;;
24485;SDS011;13449;49.374;8.584;2023-04-29T05:15:46;10.70;;;2.60;;
24485;SDS011;13449;49.374;8.584;2023-04-29T05:18:15;2.72;;;2.53;;
24485;SDS011;13449;49.374;8.584;2023-04-29T05:20:42;4.20;;;2.50;;
24485;SDS011;13449;49.374;8.584;2023-04-29T05:23:08;9.20;;;2.40;;
24485;SDS011;13449;49.374;8.584;2023-04-29T05:25:35;2.25;;;2.05;;
24485;SDS011;13449;49.374;8.584;2023-04-29T05:28:01;2.60;;;2.40;;
24485;SDS011;13449;49.374;8.584;2023-04-29T05:30:30;2.10;;;1.80;;
24485;SDS011;13449;49.374;8.584;2023-04-29T05:32:59;3.00;;;2.17;;
24485;SDS011;13449;49.374;8.584;2023-04-29T05:35:28;4.57;;;1.98;;
24485;SDS011;13449;49.374;8.584;2023-04-29T05:37:56;3.97;;;2.20;;
24485;SDS011;13449;49.374;8.584;2023-04-29T05:40:22;4.20;;;1.85;;
24485;SDS011;13449;49.374;8.584;2023-04-29T05:42:49;10.20;;;1.98;;
24485;SDS011;13449;49.374;8.584;2023-04-29T05:45:15;3.67;;;2.17;;
24485;SDS011;13449;49.374;8.584;2023-04-29T05:47:42;2.60;;;1.83;;
24485;SDS011;13449;49.374;8.584;2023-04-29T05:50:08;3.55;;;1.90;;
24485;SDS011;13449;49.374;8.584;2023-04-29T05:52:36;7.10;;;2.35;;
24485;SDS011;13449;49.374;8.584;2023-04-29T05:55:03;5.60;;;3.15;;
24485;SDS011;13449;49.374;8.584;2023-04-29T05:57:30;4.18;;;3.63;;
24485;SDS011;13449;49.374;8.584;2023-04-29T05:59:57;19.00;;;13.13;;
24485;SDS011;13449;49.374;8.584;2023-04-29T06:02:25;8.55;;;7.03;;
24485;SDS011;13449;49.374;8.584;2023-04-29T06:04:54;6.38;;;5.78;;
24485;SDS011;13449;49.374;8.584;2023-04-29T06:07:22;7.65;;;6.30;;
24485;SDS011;13449;49.374;8.584;2023-04-29T06:09:49;6.95;;;4.28;;
24485;SDS011;13449;49.374;8.584;2023-04-29T06:12:18;5.03;;;2.80;;
24485;SDS011;13449;49.374;8.584;2023-04-29T06:14:45;4.47;;;2.97;;
24485;SDS011;13449;49.374;8.584;2023-04-29T06:17:11;7.97;;;3.08;;
24485;SDS011;13449;49.374;8.584;2023-04-29T06:19:38;2.60;;;2.40;;
24485;SDS011;13449;49.374;8.584;2023-04-29T06:22:04;2.90;;;2.60;;
24485;SDS011;13449;49.374;8.584;2023-04-29T06:24:31;8.07;;;3.55;;
24485;SDS011;13449;49.374;8.584;2023-04-29T06:26:57;14.07;;;8.07;;
24485;SDS011;13449;49.374;8.584;2023-04-29T06:29:27;14.88;;;8.18;;
24485;SDS011;13449;49.374;8.584;2023-04-29T06:31:53;20.50;;;12.27;;
24485;SDS011;13449;49.374;8.584;2023-04-29T06:34:21;13.50;;;9.05;;
24485;SDS011;13449;49.374;8.584;2023-04-29T06:36:47;19.98;;;15.43;;
24485;SDS011;13449;49.374;8.584;2023-04-29T06:39:14;10.88;;;7.68;;
24485;SDS011;13449;49.374;8.584;2023-04-29T06:41:40;7.63;;;5.32;;
24485;SDS011;13449;49.374;8.584;2023-04-29T06:44:07;16.20;;;8.32;;
24485;SDS011;13449;49.374;8.584;2023-04-29T06:46:34;19.98;;;14.80;;
24485;SDS011;13449;49.374;8.584;2023-04-29T06:49:01;13.82;;;7.97;;
24485;SDS011;13449;49.374;8.584;2023-04-29T06:51:29;5.88;;;4.53;;
24485;SDS011;13449;49.374;8.584;2023-04-29T06:53:57;3.30;;;3.00;;
24485;SDS011;13449;49.374;8.584;2023-04-29T06:56:23;4.28;;;2.70;;
24485;SDS011;13449;49.374;8.584;2023-04-29T06:58:50;3.70;;;2.47;;
24485;SDS011;13449;49.374;8.584;2023-04-29T07:01:17;4.50;;;2.75;;
24485;SDS011;13449;49.374;8.584;2023-04-29T07:03:43;3.35;;;3.05;;
24485;SDS011;13449;49.374;8.584;2023-04-29T07:06:10;5.57;;;3.08;;
24485;SDS011;13449;49.374;8.584;2023-04-29T07:08:37;3.60;;;2.70;;
24485;SDS011;13449;49.374;8.584;2023-04-29T07:11:04;6.22;;;3.40;;
24485;SDS011;13449;49.374;8.584;2023-04-29T07:13:30;3.90;;;2.50;;
24485;SDS011;13449;49.374;8.584;2023-04-29T07:15:59;7.28;;;2.88;;
24485;SDS011;13449;49.374;8.584;2023-04-29T07:18:28;6.28;;;3.60;;
24485;SDS011;13449;49.374;8.584;2023-04-29T07:20:59;3.55;;;2.85;;
24485;SDS011;13449;49.374;8.584;2023-04-29T07:23:26;6.20;;;3.03;;
24485;SDS011;13449;49.374;8.584;2023-04-29T07:25:53;4.40;;;2.85;;
24485;SDS011;13449;49.374;8.584;2023-04-29T07:28:19;3.40;;;2.75;;
24485;SDS011;13449;49.374;8.584;2023-04-29T07:30:48;5.00;;;4.20;;
24485;SDS011;13449;49.374;8.584;2023-04-29T07:33:17;5.43;;;3.95;;
24485;SDS011;13449;49.374;8.584;2023-04-29T07:35:43;6.55;;;4.18;;
24485;SDS011;13449;49.374;8.584;2023-04-29T07:38:15;8.63;;;5.60;;
24485;SDS011;13449;49.374;8.584;2023-04-29T07:40:41;6.90;;;5.22;;
24485;SDS011;13449;49.374;8.584;2023-04-29T07:43:08;7.53;;;5.50;;
24485;SDS011;13449;49.374;8.584;2023-04-29T07:45:34;10.20;;;6.15;;
24485;SDS011;13449;49.374;8.584;2023-04-29T07:48:01;10.77;;;6.68;;
24485;SDS011;13449;49.374;8.584;2023-04-29T07:50:28;16.77;;;8.10;;
24485;SDS011;13449;49.374;8.584;2023-04-29T07:52:54;15.80;;;7.90;;
24485;SDS011;13449;49.374;8.584;2023-04-29T07:55:22;13.43;;;8.25;;
24485;SDS011;13449;49.374;8.584;2023-04-29T07:57:52;19.23;;;8.00;;
24485;SDS011;13449;49.374;8.584;2023-04-29T08:00:18;14.68;;;8.40;;
24485;SDS011;13449;49.374;8.584;2023-04-29T08:02:45;20.55;;;8.52;;
24485;SDS011;13449;49.374;8.584;2023-04-29T08:05:12;17.65;;;8.57;;
24485;SDS011;13449;49.374;8.584;2023-04-29T08:07:39;17.55;;;6.93;;
24485;SDS011;13449;49.374;8.584;2023-04-29T08:10:08;12.60;;;7.25;;
24485;SDS011;13449;49.374;8.584;2023-04-29T08:12:39;16.13;;;8.13;;
24485;SDS011;13449;49.374;8.584;2023-04-29T08:15:10;19.58;;;8.73;;
24485;SDS011;13449;49.374;8.584;2023-04-29T08:17:37;13.15;;;7.10;;
24485;SDS011;13449;49.374;8.584;2023-04-29T08:20:03;19.98;;;8.88;;
24485;SDS011;13449;49.374;8.584;2023-04-29T08:22:30;11.43;;;7.32;;
24485;SDS011;13449;49.374;8.584;2023-04-29T08:24:57;12.18;;;7.03;;
24485;SDS011;13449;49.374;8.584;2023-04-29T08:27:30;14.38;;;6.93;;
24485;SDS011;13449;49.374;8.584;2023-04-29T08:29:59;15.32;;;7.70;;
24485;SDS011;13449;49.374;8.584;2023-04-29T08:32:28;13.80;;;7.13;;
24485;SDS011;13449;49.374;8.584;2023-04-29T08:34:54;11.93;;;6.53;;
24485;SDS011;13449;49.374;8.584;2023-04-29T08:37:21;15.93;;;7.93;;
24485;SDS011;13449;49.374;8.584;2023-04-29T08:39:48;15.00;;;8.13;;
24485;SDS011;13449;49.374;8.584;2023-04-29T08:42:17;11.73;;;7.05;;
24485;SDS011;13449;49.374;8.584;2023-04-29T08:44:53;11.15;;;7.30;;
24485;SDS011;13449;49.374;8.584;2023-04-29T08:47:21;10.65;;;6.50;;
24485;SDS011;13449;49.374;8.584;2023-04-29T08:49:48;13.50;;;7.57;;
24485;SDS011;13449;49.374;8.584;2023-04-29T08:52:15;13.48;;;7.50;;
24485;SDS011;13449;49.374;8.584;2023-04-29T08:54:41;9.35;;;6.72;;
24485;SDS011;13449;49.374;8.584;2023-04-29T08:57:08;14.25;;;6.40;;
24485;SDS011;13449;49.374;8.584;2023-04-29T08:59:36;12.63;;;7.03;;
24485;SDS011;13449;49.374;8.584;2023-04-29T09:02:05;12.13;;;6.95;;
24485;SDS011;13449;49.374;8.584;2023-04-29T09:07:21;11.77;;;6.57;;
24485;SDS011;13449;49.374;8.584;2023-04-29T09:09:48;10.27;;;6.15;;
24485;SDS011;13449;49.374;8.584;2023-04-29T09:12:17;11.43;;;6.05;;
24485;SDS011;13449;49.374;8.584;2023-04-29T09:14:43;10.18;;;6.40;;
24485;SDS011;13449;49.374;8.584;2023-04-29T09:17:15;8.85;;;6.15;;
24485;SDS011;13449;49.374;8.584;2023-04-29T09:19:41;11.05;;;6.90;;
24485;SDS011;13449;49.374;8.584;2023-04-29T09:22:11;9.40;;;5.78;;
24485;SDS011;13449;49.374;8.584;2023-04-29T09:24:38;13.45;;;6.38;;
24485;SDS011;13449;49.374;8.584;2023-04-29T09:27:05;9.38;;;6.07;;
24485;SDS011;13449;49.374;8.584;2023-04-29T09:29:34;10.82;;;6.30;;
24485;SDS011;13449;49.374;8.584;2023-04-29T09:32:17;15.43;;;8.00;;
24485;SDS011;13449;49.374;8.584;2023-04-29T09:34:45;10.70;;;7.25;;
24485;SDS011;13449;49.374;8.584;2023-04-29T09:37:24;13.45;;;8.15;;
24485;SDS011;13449;49.374;8.584;2023-04-29T09:39:53;10.02;;;6.40;;
24485;SDS011;13449;49.374;8.584;2023-04-29T09:42:20;12.35;;;6.45;;
24485;SDS011;13449;49.374;8.584;2023-04-29T09:44:46;12.00;;;6.00;;
24485;SDS011;13449;49.374;8.584;2023-04-29T09:47:13;10.60;;;5.85;;
24485;SDS011;13449;49.374;8.584;2023-04-29T09:49:42;10.05;;;6.15;;
24485;SDS011;13449;49.374;8.584;2023-04-29T09:52:15;10.18;;;6.25;;
24485;SDS011;13449;49.374;8.584;2023-04-29T09:54:46;7.78;;;6.78;;
24485;SDS011;13449;49.374;8.584;2023-04-29T09:57:12;7.85;;;5.10;;
24485;SDS011;13449;49.374;8.584;2023-04-29T09:59:41;7.75;;;4.95;;
24485;SDS011;13449;49.374;8.584;2023-04-29T10:02:11;9.75;;;5.63;;
24485;SDS011;13449;49.374;8.584;2023-04-29T10:04:44;7.10;;;4.50;;
24485;SDS011;13449;49.374;8.584;2023-04-29T10:07:13;9.85;;;5.30;;
24485;SDS011;13449;49.374;8.584;2023-04-29T10:09:41;6.47;;;4.45;;
24485;SDS011;13449;49.374;8.584;2023-04-29T10:12:15;6.68;;;4.65;;
24485;SDS011;13449;49.374;8.584;2023-04-29T10:15:02;5.80;;;3.78;;
24485;SDS011;13449;49.374;8.584;2023-04-29T10:17:35;5.03;;;3.92;;
24485;SDS011;13449;49.374;8.584;2023-04-29T10:20:08;5.68;;;3.65;;
24485;SDS011;13449;49.374;8.584;2023-04-29T10:25:18;7.68;;;4.28;;
24485;SDS011;13449;49.374;8.584;2023-04-29T10:27:46;5.85;;;4.22;;
24485;SDS011;13449;49.374;8.584;2023-04-29T10:30:14;4.35;;;3.47;;
24485;SDS011;13449;49.374;8.584;2023-04-29T10:32:43;6.85;;;4.30;;
24485;SDS011;13449;49.374;8.584;2023-04-29T10:35:17;4.10;;;3.53;;
24485;SDS011;13449;49.374;8.584;2023-04-29T10:37:46;4.72;;;4.15;;
24485;SDS011;13449;49.374;8.584;2023-04-29T10:48:17;4.35;;;3.10;;
24485;SDS011;13449;49.374;8.584;2023-04-29T10:53:13;4.13;;;3.50;;
24485;SDS011;13449;49.374;8.584;2023-04-29T10:55:40;4.70;;;3.78;;
24485;SDS011;13449;49.374;8.584;2023-04-29T10:58:32;4.63;;;3.40;;
24485;SDS011;13449;49.374;8.584;2023-04-29T11:01:16;3.80;;;2.90;;
24485;SDS011;13449;49.374;8.584;2023-04-29T11:09:03;5.15;;;3.55;;
24485;SDS011;13449;49.374;8.584;2023-04-29T11:11:41;4.53;;;3.25;;
24485;SDS011;13449;49.374;8.584;2023-04-29T11:14:12;6.25;;;4.13;;
24485;SDS011;13449;49.374;8.584;2023-04-29T11:16:45;8.52;;;3.20;;
24485;SDS011;13449;49.374;8.584;2023-04-29T11:19:29;5.97;;;3.72;;
24485;SDS011;13449;49.374;8.584;2023-04-29T11:24:53;2.85;;;2.58;;
24485;SDS011;13449;49.374;8.584;2023-04-29T11:27:24;2.88;;;2.55;;
24485;SDS011;13449;49.374;8.584;2023-04-29T11:29:57;4.05;;;2.80;;
24485;SDS011;13449;49.374;8.584;2023-04-29T11:32:28;3.17;;;2.45;;
24485;SDS011;13449;49.374;8.584;2023-04-29T11:35:06;3.13;;;2.63;;
24485;SDS011;13449;49.374;8.584;2023-04-29T11:37:41;4.40;;;3.33;;
24485;SDS011;13449;49.374;8.584;2023-04-29T11:40:08;3.90;;;2.65;;
24485;SDS011;13449;49.374;8.584;2023-04-29T11:42:43;5.03;;;2.75;;
24485;SDS011;13449;49.374;8.584;2023-04-29T11:45:15;3.92;;;2.78;;
24485;SDS011;13449;49.374;8.584;2023-04-29T11:47:45;4.13;;;2.72;;
24485;SDS011;13449;49.374;8.584;2023-04-29T11:50:12;3.35;;;3.00;;
24485;SDS011;13449;49.374;8.584;2023-04-29T11:52:42;4.30;;;2.95;;
24485;SDS011;13449;49.374;8.584;2023-04-29T11:55:11;4.28;;;3.00;;
24485;SDS011;13449;49.374;8.584;2023-04-29T11:57:39;3.90;;;2.75;;
24485;SDS011;13449;49.374;8.584;2023-04-29T12:00:10;4.07;;;3.30;;
24485;SDS011;13449;49.374;8.584;2023-04-29T12:02:42;3.90;;;3.40;;
24485;SDS011;13449;49.374;8.584;2023-04-29T12:05:10;4.60;;;3.53;;
24485;SDS011;13449;49.374;8.584;2023-04-29T12:07:38;5.45;;;3.60;;
24485;SDS011;13449;49.374;8.584;2023-04-29T12:10:08;4.55;;;3.30;;
24485;SDS011;13449;49.374;8.584;2023-04-29T12:12:40;4.05;;;3.22;;
24485;SDS011;13449;49.374;8.584;2023-04-29T12:15:09;4.90;;;3.60;;
24485;SDS011;13449;49.374;8.584;2023-04-29T12:17:36;5.15;;;3.47;;
24485;SDS011;13449;49.374;8.584;2023-04-29T12:20:06;3.22;;;2.92;;
24485;SDS011;13449;49.374;8.584;2023-04-29T12:22:35;6.20;;;3.17;;
24485;SDS011;13449;49.374;8.584;2023-04-29T12:25:05;7.03;;;2.78;;
24485;SDS011;13449;49.374;8.584;2023-04-29T12:27:33;3.97;;;2.55;;
24485;SDS011;13449;49.374;8.584;2023-04-29T12:30:01;2.45;;;2.05;;
24485;SDS011;13449;49.374;8.584;2023-04-29T12:32:27;6.30;;;2.10;;
24485;SDS011;13449;49.374;8.584;2023-04-29T12:34:54;1.73;;;1.63;;
24485;SDS011;13449;49.374;8.584;2023-04-29T12:37:21;2.30;;;2.05;;
24485;SDS011;13449;49.374;8.584;2023-04-29T12:39:49;2.25;;;2.05;;
24485;SDS011;13449;49.374;8.584;2023-04-29T12:42:16;2.47;;;1.83;;
24485;SDS011;13449;49.374;8.584;2023-04-29T12:44:45;2.90;;;1.80;;
24485;SDS011;13449;49.374;8.584;2023-04-29T12:47:13;3.67;;;1.98;;
24485;SDS011;13449;49.374;8.584;2023-04-29T12:49:46;2.50;;;1.75;;
24485;SDS011;13449;49.374;8.584;2023-04-29T12:52:13;3.90;;;1.85;;
24485;SDS011;13449;49.374;8.584;2023-04-29T12:54:40;2.33;;;1.65;;
24485;SDS011;13449;49.374;8.584;2023-04-29T12:57:10;3.15;;;2.28;;
24485;SDS011;13449;49.374;8.584;2023-04-29T12:59:52;2.95;;;1.88;;
24485;SDS011;13449;49.374;8.584;2023-04-29T13:02:21;1.60;;;1.50;;
24485;SDS011;13449;49.374;8.584;2023-04-29T13:04:49;1.65;;;1.45;;
24485;SDS011;13449;49.374;8.584;2023-04-29T13:07:16;3.33;;;1.70;;
24485;SDS011;13449;49.374;8.584;2023-04-29T13:09:43;1.75;;;1.52;;
24485;SDS011;13449;49.374;8.584;2023-04-29T13:12:09;1.70;;;1.50;;
24485;SDS011;13449;49.374;8.584;2023-04-29T13:14:38;3.00;;;1.42;;
24485;SDS011;13449;49.374;8.584;2023-04-29T13:17:05;1.85;;;1.65;;
24485;SDS011;13449;49.374;8.584;2023-04-29T13:19:34;2.53;;;1.67;;
24485;SDS011;13449;49.374;8.584;2023-04-29T13:22:17;1.98;;;1.50;;
24485;SDS011;13449;49.374;8.584;2023-04-29T13:24:44;5.00;;;1.55;;
24485;SDS011;13449;49.374;8.584;2023-04-29T13:27:13;3.03;;;1.80;;
24485;SDS011;13449;49.374;8.584;2023-04-29T13:29:39;2.83;;;2.08;;
24485;SDS011;13449;49.374;8.584;2023-04-29T13:32:06;3.22;;;2.05;;
24485;SDS011;13449;49.374;8.584;2023-04-29T13:34:34;2.33;;;1.77;;
24485;SDS011;13449;49.374;8.584;2023-04-29T13:37:03;2.30;;;1.88;;
24485;SDS011;13449;49.374;8.584;2023-04-29T13:39:29;4.32;;;1.88;;
24485;SDS011;13449;49.374;8.584;2023-04-29T13:41:56;3.15;;;1.70;;
24485;SDS011;13449;49.374;8.584;2023-04-29T13:44:25;2.83;;;1.77;;
24485;SDS011;13449;49.374;8.584;2023-04-29T13:47:14;2.67;;;1.80;;
24485;SDS011;13449;49.374;8.584;2023-04-29T13:49:49;2.78;;;1.63;;
24485;SDS011;13449;49.374;8.584;2023-04-29T13:52:19;3.10;;;1.58;;
24485;SDS011;13449;49.374;8.584;2023-04-29T13:54:48;4.20;;;1.50;;
24485;SDS011;13449;49.374;8.584;2023-04-29T13:57:37;6.70;;;2.42;;
24485;SDS011;13449;49.374;8.584;2023-04-29T14:00:24;2.35;;;1.92;;
24485;SDS011;13449;49.374;8.584;2023-04-29T14:03:12;4.32;;;1.98;;
24485;SDS011;13449;49.374;8.584;2023-04-29T14:05:39;1.92;;;1.45;;
24485;SDS011;13449;49.374;8.584;2023-04-29T14:08:07;2.72;;;1.70;;
24485;SDS011;13449;49.374;8.584;2023-04-29T14:10:33;2.35;;;2.05;;
24485;SDS011;13449;49.374;8.584;2023-04-29T14:13:00;2.83;;;2.20;;
24485;SDS011;13449;49.374;8.584;2023-04-29T14:15:26;3.58;;;2.15;;
24485;SDS011;13449;49.374;8.584;2023-04-29T14:17:54;3.10;;;2.00;;
24485;SDS011;13449;49.374;8.584;2023-04-29T14:20:21;1.98;;;1.77;;
24485;SDS011;13449;49.374;8.584;2023-04-29T14:22:47;2.83;;;2.03;;
24485;SDS011;13449;49.374;8.584;2023-04-29T14:25:14;2.20;;;1.80;;
24485;SDS011;13449;49.374;8.584;2023-04-29T14:27:43;6.72;;;3.33;;
24485;SDS011;13449;49.374;8.584;2023-04-29T14:30:14;3.80;;;2.97;;
24485;SDS011;13449;49.374;8.584;2023-04-29T14:32:40;4.47;;;2.05;;
24485;SDS011;13449;49.374;8.584;2023-04-29T14:35:07;2.75;;;2.25;;
24485;SDS011;13449;49.374;8.584;2023-04-29T14:37:36;2.22;;;1.95;;
24485;SDS011;13449;49.374;8.584;2023-04-29T14:40:03;2.58;;;2.22;;
24485;SDS011;13449;49.374;8.584;2023-04-29T14:42:30;3.45;;;2.58;;
24485;SDS011;13449;49.374;8.584;2023-04-29T14:44:59;8.98;;;2.50;;
24485;SDS011;13449;49.374;8.584;2023-04-29T14:47:26;3.88;;;2.65;;
24485;SDS011;13449;49.374;8.584;2023-04-29T14:49:56;5.57;;;3.13;;
24485;SDS011;13449;49.374;8.584;2023-04-29T14:52:25;4.15;;;2.80;;
24485;SDS011;13449;49.374;8.584;2023-04-29T14:54:51;3.53;;;2.95;;
24485;SDS011;13449;49.374;8.584;2023-04-29T14:57:18;4.25;;;2.55;;
24485;SDS011;13449;49.374;8.584;2023-04-29T14:59:45;4.22;;;3.08;;
24485;SDS011;13449;49.374;8.584;2023-04-29T15:02:14;3.80;;;2.85;;
24485;SDS011;13449;49.374;8.584;2023-04-29T15:04:41;4.38;;;3.05;;
24485;SDS011;13449;49.374;8.584;2023-04-29T15:07:11;4.07;;;3.00;;
24485;SDS011;13449;49.374;8.584;2023-04-29T15:09:39;5.50;;;2.97;;
24485;SDS011;13449;49.374;8.584;2023-04-29T15:12:08;4.60;;;3.22;;
24485;SDS011;13449;49.374;8.584;2023-04-29T15:14:34;4.88;;;3.10;;
24485;SDS011;13449;49.374;8.584;2023-04-29T15:17:03;4.20;;;3.00;;
24485;SDS011;13449;49.374;8.584;2023-04-29T15:19:30;3.88;;;3.10;;
24485;SDS011;13449;49.374;8.584;2023-04-29T15:21:59;4.03;;;2.95;;
24485;SDS011;13449;49.374;8.584;2023-04-29T15:24:25;3.60;;;2.97;;